sensor_id;sensor_type;location;lat;lon;timestamp;P1;durP1;ratioP1;P2;durP2;ratioP2
2488;SDS011;1255;48.716;9.124;2023-04-16T00:00:21;4.68;;;4.13;;
2488;SDS011;1255;48.716;9.124;2023-04-16T00:02:48;4.38;;;3.88;;
2488;SDS011;1255;48.716;9.124;2023-04-16T00:05:15;4.53;;;4.10;;
2488;SDS011;1255;48.716;9.124;2023-04-16T00:07:41;5.65;;;4.32;;
2488;SDS011;1255;48.716;9.124;2023-04-16T00:10:08;6.75;;;4.85;;
2488;SDS011;1255;48.716;9.124;2023-04-16T00:12:35;5.93;;;4.95;;
2488;SDS011;1255;48.716;9.124;2023-04-16T00:15:03;5.43;;;4.38;;
2488;SDS011;1255;48.716;9.124;2023-04-16T00:17:30;4.90;;;4.15;;
2488;SDS011;1255;48.716;9.124;2023-04-16T00:19:57;5.13;;;3.97;;
2488;SDS011;1255;48.716;9.124;2023-04-16T00:22:24;5.97;;;4.10;;
2488;SDS011;1255;48.716;9.124;2023-04-16T00:24:50;4.35;;;3.95;;
2488;SDS011;1255;48.716;9.124;2023-04-16T00:27:17;5.30;;;4.55;;
2488;SDS011;1255;48.716;9.124;2023-04-16T00:29:44;4.25;;;3.67;;
2488;SDS011;1255;48.716;9.124;2023-04-16T00:32:12;5.15;;;4.40;;
2488;SDS011;1255;48.716;9.124;2023-04-16T00:34:39;5.25;;;4.25;;
2488;SDS011;1255;48.716;9.124;2023-04-16T00:37:06;4.45;;;3.90;;
2488;SDS011;1255;48.716;9.124;2023-04-16T00:39:32;5.97;;;4.22;;
2488;SDS011;1255;48.716;9.124;2023-04-16T00:41:59;4.32;;;3.80;;
2488;SDS011;1255;48.716;9.124;2023-04-16T00:44:26;4.55;;;4.03;;
2488;SDS011;1255;48.716;9.124;2023-04-16T00:46:53;5.30;;;4.50;;
2488;SDS011;1255;48.716;9.124;2023-04-16T00:49:22;4.50;;;3.80;;
2488;SDS011;1255;48.716;9.124;2023-04-16T00:51:49;4.65;;;4.20;;
2488;SDS011;1255;48.716;9.124;2023-04-16T00:54:15;5.57;;;4.15;;
2488;SDS011;1255;48.716;9.124;2023-04-16T00:56:43;4.85;;;3.80;;
2488;SDS011;1255;48.716;9.124;2023-04-16T00:59:10;4.15;;;3.40;;
2488;SDS011;1255;48.716;9.124;2023-04-16T01:01:37;6.35;;;4.20;;
2488;SDS011;1255;48.716;9.124;2023-04-16T01:04:03;4.25;;;3.78;;
2488;SDS011;1255;48.716;9.124;2023-04-16T01:06:32;5.88;;;4.32;;
2488;SDS011;1255;48.716;9.124;2023-04-16T01:08:59;5.20;;;4.30;;
2488;SDS011;1255;48.716;9.124;2023-04-16T01:11:26;4.95;;;4.43;;
2488;SDS011;1255;48.716;9.124;2023-04-16T01:13:52;4.57;;;4.18;;
2488;SDS011;1255;48.716;9.124;2023-04-16T01:16:19;4.95;;;4.35;;
2488;SDS011;1255;48.716;9.124;2023-04-16T01:18:46;4.57;;;3.70;;
2488;SDS011;1255;48.716;9.124;2023-04-16T01:21:14;5.20;;;4.35;;
2488;SDS011;1255;48.716;9.124;2023-04-16T01:23:40;4.70;;;4.13;;
2488;SDS011;1255;48.716;9.124;2023-04-16T01:26:07;5.35;;;4.18;;
2488;SDS011;1255;48.716;9.124;2023-04-16T01:28:34;5.57;;;4.05;;
2488;SDS011;1255;48.716;9.124;2023-04-16T01:31:01;4.15;;;3.25;;
2488;SDS011;1255;48.716;9.124;2023-04-16T01:33:27;4.10;;;3.70;;
2488;SDS011;1255;48.716;9.124;2023-04-16T01:35:54;4.57;;;3.88;;
2488;SDS011;1255;48.716;9.124;2023-04-16T01:38:22;4.45;;;3.65;;
2488;SDS011;1255;48.716;9.124;2023-04-16T01:40:49;3.70;;;3.40;;
2488;SDS011;1255;48.716;9.124;2023-04-16T01:43:20;4.97;;;4.10;;
2488;SDS011;1255;48.716;9.124;2023-04-16T01:45:46;4.35;;;3.90;;
2488;SDS011;1255;48.716;9.124;2023-04-16T01:48:13;4.97;;;3.55;;
2488;SDS011;1255;48.716;9.124;2023-04-16T01:50:40;5.40;;;3.90;;
2488;SDS011;1255;48.716;9.124;2023-04-16T01:53:07;5.88;;;4.22;;
2488;SDS011;1255;48.716;9.124;2023-04-16T01:55:35;4.50;;;4.10;;
2488;SDS011;1255;48.716;9.124;2023-04-16T01:58:01;5.32;;;3.90;;
2488;SDS011;1255;48.716;9.124;2023-04-16T02:00:28;4.88;;;3.83;;
2488;SDS011;1255;48.716;9.124;2023-04-16T02:02:55;4.25;;;3.50;;
2488;SDS011;1255;48.716;9.124;2023-04-16T02:05:22;4.50;;;3.90;;
2488;SDS011;1255;48.716;9.124;2023-04-16T02:07:48;3.90;;;3.08;;
2488;SDS011;1255;48.716;9.124;2023-04-16T02:10:15;3.28;;;2.97;;
2488;SDS011;1255;48.716;9.124;2023-04-16T02:12:43;3.75;;;2.88;;
2488;SDS011;1255;48.716;9.124;2023-04-16T02:15:10;3.95;;;3.15;;
2488;SDS011;1255;48.716;9.124;2023-04-16T02:17:37;4.90;;;3.55;;
2488;SDS011;1255;48.716;9.124;2023-04-16T02:20:04;3.30;;;3.00;;
2488;SDS011;1255;48.716;9.124;2023-04-16T02:22:33;4.28;;;3.33;;
2488;SDS011;1255;48.716;9.124;2023-04-16T02:25:00;3.50;;;3.20;;
2488;SDS011;1255;48.716;9.124;2023-04-16T02:27:26;6.50;;;3.38;;
2488;SDS011;1255;48.716;9.124;2023-04-16T02:29:54;5.63;;;3.63;;
2488;SDS011;1255;48.716;9.124;2023-04-16T02:32:21;4.00;;;3.60;;
2488;SDS011;1255;48.716;9.124;2023-04-16T02:34:48;4.32;;;3.40;;
2488;SDS011;1255;48.716;9.124;2023-04-16T02:37:14;3.80;;;3.13;;
2488;SDS011;1255;48.716;9.124;2023-04-16T02:39:41;4.13;;;3.72;;
2488;SDS011;1255;48.716;9.124;2023-04-16T02:42:09;4.15;;;3.63;;
2488;SDS011;1255;48.716;9.124;2023-04-16T02:44:35;3.92;;;3.28;;
2488;SDS011;1255;48.716;9.124;2023-04-16T02:47:03;3.85;;;3.10;;
2488;SDS011;1255;48.716;9.124;2023-04-16T02:49:30;3.88;;;2.80;;
2488;SDS011;1255;48.716;9.124;2023-04-16T02:51:57;4.75;;;3.42;;
2488;SDS011;1255;48.716;9.124;2023-04-16T02:54:23;3.78;;;3.30;;
2488;SDS011;1255;48.716;9.124;2023-04-16T02:56:50;4.68;;;3.22;;
2488;SDS011;1255;48.716;9.124;2023-04-16T02:59:17;4.72;;;3.83;;
2488;SDS011;1255;48.716;9.124;2023-04-16T03:01:43;3.50;;;2.95;;
2488;SDS011;1255;48.716;9.124;2023-04-16T03:04:12;4.47;;;3.45;;
2488;SDS011;1255;48.716;9.124;2023-04-16T03:06:38;4.88;;;3.85;;
2488;SDS011;1255;48.716;9.124;2023-04-16T03:09:05;3.67;;;3.10;;
2488;SDS011;1255;48.716;9.124;2023-04-16T03:11:31;4.95;;;3.65;;
2488;SDS011;1255;48.716;9.124;2023-04-16T03:13:58;5.13;;;3.40;;
2488;SDS011;1255;48.716;9.124;2023-04-16T03:16:25;3.88;;;3.25;;
2488;SDS011;1255;48.716;9.124;2023-04-16T03:18:52;4.88;;;3.90;;
2488;SDS011;1255;48.716;9.124;2023-04-16T03:21:20;4.72;;;3.75;;
2488;SDS011;1255;48.716;9.124;2023-04-16T03:23:46;5.35;;;3.72;;
2488;SDS011;1255;48.716;9.124;2023-04-16T03:26:13;4.53;;;3.90;;
2488;SDS011;1255;48.716;9.124;2023-04-16T03:28:40;5.07;;;4.20;;
2488;SDS011;1255;48.716;9.124;2023-04-16T03:31:07;7.70;;;4.55;;
2488;SDS011;1255;48.716;9.124;2023-04-16T03:33:33;4.32;;;3.47;;
2488;SDS011;1255;48.716;9.124;2023-04-16T03:36:00;4.88;;;4.03;;
2488;SDS011;1255;48.716;9.124;2023-04-16T03:38:28;4.95;;;3.83;;
2488;SDS011;1255;48.716;9.124;2023-04-16T03:40:55;4.68;;;3.42;;
2488;SDS011;1255;48.716;9.124;2023-04-16T03:43:22;5.65;;;3.78;;
2488;SDS011;1255;48.716;9.124;2023-04-16T03:45:48;5.47;;;3.95;;
2488;SDS011;1255;48.716;9.124;2023-04-16T03:48:15;5.55;;;3.72;;
2488;SDS011;1255;48.716;9.124;2023-04-16T03:50:43;5.28;;;3.78;;
2488;SDS011;1255;48.716;9.124;2023-04-16T03:53:11;8.07;;;4.03;;
2488;SDS011;1255;48.716;9.124;2023-04-16T03:55:39;5.35;;;4.32;;
2488;SDS011;1255;48.716;9.124;2023-04-16T03:58:06;7.18;;;4.30;;
2488;SDS011;1255;48.716;9.124;2023-04-16T04:00:33;5.45;;;3.58;;
2488;SDS011;1255;48.716;9.124;2023-04-16T04:02:59;3.47;;;3.05;;
2488;SDS011;1255;48.716;9.124;2023-04-16T04:05:26;6.47;;;4.30;;
2488;SDS011;1255;48.716;9.124;2023-04-16T04:07:53;6.65;;;4.45;;
2488;SDS011;1255;48.716;9.124;2023-04-16T04:10:20;4.10;;;3.65;;
2488;SDS011;1255;48.716;9.124;2023-04-16T04:12:47;8.15;;;4.10;;
2488;SDS011;1255;48.716;9.124;2023-04-16T04:15:14;4.28;;;2.85;;
2488;SDS011;1255;48.716;9.124;2023-04-16T04:17:41;5.30;;;4.13;;
2488;SDS011;1255;48.716;9.124;2023-04-16T04:20:08;11.55;;;4.65;;
2488;SDS011;1255;48.716;9.124;2023-04-16T04:22:36;6.03;;;4.32;;
2488;SDS011;1255;48.716;9.124;2023-04-16T04:25:02;5.70;;;3.58;;
2488;SDS011;1255;48.716;9.124;2023-04-16T04:27:29;8.95;;;5.22;;
2488;SDS011;1255;48.716;9.124;2023-04-16T04:29:57;6.70;;;4.30;;
2488;SDS011;1255;48.716;9.124;2023-04-16T04:32:24;4.07;;;3.20;;
2488;SDS011;1255;48.716;9.124;2023-04-16T04:34:51;4.50;;;3.55;;
2488;SDS011;1255;48.716;9.124;2023-04-16T04:37:17;5.20;;;4.07;;
2488;SDS011;1255;48.716;9.124;2023-04-16T04:39:44;5.65;;;4.15;;
2488;SDS011;1255;48.716;9.124;2023-04-16T04:42:11;4.25;;;3.85;;
2488;SDS011;1255;48.716;9.124;2023-04-16T04:44:38;5.85;;;4.43;;
2488;SDS011;1255;48.716;9.124;2023-04-16T04:47:06;5.18;;;3.92;;
2488;SDS011;1255;48.716;9.124;2023-04-16T04:49:32;5.40;;;3.70;;
2488;SDS011;1255;48.716;9.124;2023-04-16T04:51:59;5.85;;;3.47;;
2488;SDS011;1255;48.716;9.124;2023-04-16T04:54:26;5.13;;;3.60;;
2488;SDS011;1255;48.716;9.124;2023-04-16T04:56:53;4.20;;;3.42;;
2488;SDS011;1255;48.716;9.124;2023-04-16T04:59:20;4.70;;;3.45;;
2488;SDS011;1255;48.716;9.124;2023-04-16T05:01:47;5.60;;;3.75;;
2488;SDS011;1255;48.716;9.124;2023-04-16T05:04:15;6.57;;;4.57;;
2488;SDS011;1255;48.716;9.124;2023-04-16T05:06:42;5.47;;;3.50;;
2488;SDS011;1255;48.716;9.124;2023-04-16T05:09:09;5.63;;;3.65;;
2488;SDS011;1255;48.716;9.124;2023-04-16T05:11:36;3.97;;;3.30;;
2488;SDS011;1255;48.716;9.124;2023-04-16T05:14:03;7.72;;;4.20;;
2488;SDS011;1255;48.716;9.124;2023-04-16T05:16:30;4.75;;;3.78;;
2488;SDS011;1255;48.716;9.124;2023-04-16T05:18:56;5.00;;;3.75;;
2488;SDS011;1255;48.716;9.124;2023-04-16T05:21:25;5.28;;;4.03;;
2488;SDS011;1255;48.716;9.124;2023-04-16T05:23:51;5.75;;;3.88;;
2488;SDS011;1255;48.716;9.124;2023-04-16T05:26:18;4.85;;;4.30;;
2488;SDS011;1255;48.716;9.124;2023-04-16T05:28:46;4.47;;;3.45;;
2488;SDS011;1255;48.716;9.124;2023-04-16T05:31:13;5.32;;;4.35;;
2488;SDS011;1255;48.716;9.124;2023-04-16T05:33:40;5.35;;;4.50;;
2488;SDS011;1255;48.716;9.124;2023-04-16T05:36:06;5.05;;;3.75;;
2488;SDS011;1255;48.716;9.124;2023-04-16T05:38:34;7.45;;;4.82;;
2488;SDS011;1255;48.716;9.124;2023-04-16T05:41:01;9.00;;;5.25;;
2488;SDS011;1255;48.716;9.124;2023-04-16T05:43:28;7.25;;;5.07;;
2488;SDS011;1255;48.716;9.124;2023-04-16T05:45:54;9.52;;;6.40;;
2488;SDS011;1255;48.716;9.124;2023-04-16T05:48:21;9.52;;;6.55;;
2488;SDS011;1255;48.716;9.124;2023-04-16T05:50:48;8.23;;;5.65;;
2488;SDS011;1255;48.716;9.124;2023-04-16T05:53:15;11.25;;;7.47;;
2488;SDS011;1255;48.716;9.124;2023-04-16T05:55:44;11.25;;;6.60;;
2488;SDS011;1255;48.716;9.124;2023-04-16T05:58:11;10.98;;;7.15;;
2488;SDS011;1255;48.716;9.124;2023-04-16T06:00:38;11.48;;;7.40;;
2488;SDS011;1255;48.716;9.124;2023-04-16T06:03:05;11.65;;;7.90;;
2488;SDS011;1255;48.716;9.124;2023-04-16T06:05:32;14.20;;;8.40;;
2488;SDS011;1255;48.716;9.124;2023-04-16T06:07:58;12.10;;;7.90;;
2488;SDS011;1255;48.716;9.124;2023-04-16T06:10:25;9.63;;;7.75;;
2488;SDS011;1255;48.716;9.124;2023-04-16T06:12:53;13.20;;;8.13;;
2488;SDS011;1255;48.716;9.124;2023-04-16T06:15:20;12.57;;;8.35;;
2488;SDS011;1255;48.716;9.124;2023-04-16T06:17:47;12.43;;;8.70;;
2488;SDS011;1255;48.716;9.124;2023-04-16T06:20:14;14.98;;;8.55;;
2488;SDS011;1255;48.716;9.124;2023-04-16T06:22:41;12.30;;;8.00;;
2488;SDS011;1255;48.716;9.124;2023-04-16T06:25:08;13.85;;;7.90;;
2488;SDS011;1255;48.716;9.124;2023-04-16T06:27:35;14.45;;;8.38;;
2488;SDS011;1255;48.716;9.124;2023-04-16T06:30:03;12.48;;;8.05;;
2488;SDS011;1255;48.716;9.124;2023-04-16T06:32:36;13.02;;;9.05;;
2488;SDS011;1255;48.716;9.124;2023-04-16T06:35:03;13.80;;;9.02;;
2488;SDS011;1255;48.716;9.124;2023-04-16T06:37:30;18.00;;;9.70;;
2488;SDS011;1255;48.716;9.124;2023-04-16T06:39:57;15.70;;;9.48;;
2488;SDS011;1255;48.716;9.124;2023-04-16T06:42:23;13.68;;;8.73;;
2488;SDS011;1255;48.716;9.124;2023-04-16T06:44:50;15.50;;;9.02;;
2488;SDS011;1255;48.716;9.124;2023-04-16T06:47:18;10.30;;;7.55;;
2488;SDS011;1255;48.716;9.124;2023-04-16T06:49:45;12.70;;;8.32;;
2488;SDS011;1255;48.716;9.124;2023-04-16T06:52:11;14.57;;;9.43;;
2488;SDS011;1255;48.716;9.124;2023-04-16T06:54:38;15.13;;;9.55;;
2488;SDS011;1255;48.716;9.124;2023-04-16T06:57:05;15.32;;;9.48;;
2488;SDS011;1255;48.716;9.124;2023-04-16T06:59:32;16.52;;;9.68;;
2488;SDS011;1255;48.716;9.124;2023-04-16T07:01:58;11.68;;;8.10;;
2488;SDS011;1255;48.716;9.124;2023-04-16T07:04:26;15.45;;;8.60;;
2488;SDS011;1255;48.716;9.124;2023-04-16T07:06:53;15.77;;;9.25;;
2488;SDS011;1255;48.716;9.124;2023-04-16T07:09:20;14.63;;;9.13;;
2488;SDS011;1255;48.716;9.124;2023-04-16T07:11:46;15.73;;;9.07;;
2488;SDS011;1255;48.716;9.124;2023-04-16T07:14:13;15.40;;;9.00;;
2488;SDS011;1255;48.716;9.124;2023-04-16T07:16:40;13.88;;;10.40;;
2488;SDS011;1255;48.716;9.124;2023-04-16T07:19:07;15.77;;;9.27;;
2488;SDS011;1255;48.716;9.124;2023-04-16T07:21:35;13.60;;;9.15;;
2488;SDS011;1255;48.716;9.124;2023-04-16T07:24:02;15.88;;;9.43;;
2488;SDS011;1255;48.716;9.124;2023-04-16T07:26:28;12.60;;;8.15;;
2488;SDS011;1255;48.716;9.124;2023-04-16T07:31:23;17.40;;;8.68;;
2488;SDS011;1255;48.716;9.124;2023-04-16T07:33:50;16.15;;;8.43;;
2488;SDS011;1255;48.716;9.124;2023-04-16T07:36:16;13.48;;;9.38;;
2488;SDS011;1255;48.716;9.124;2023-04-16T07:38:44;13.68;;;9.40;;
2488;SDS011;1255;48.716;9.124;2023-04-16T07:41:11;11.95;;;7.55;;
2488;SDS011;1255;48.716;9.124;2023-04-16T07:43:38;17.20;;;10.75;;
2488;SDS011;1255;48.716;9.124;2023-04-16T07:46:05;12.00;;;7.95;;
2488;SDS011;1255;48.716;9.124;2023-04-16T07:48:31;11.20;;;7.95;;
2488;SDS011;1255;48.716;9.124;2023-04-16T07:50:58;11.48;;;8.07;;
2488;SDS011;1255;48.716;9.124;2023-04-16T07:53:25;12.07;;;8.68;;
2488;SDS011;1255;48.716;9.124;2023-04-16T07:55:53;14.25;;;7.50;;
2488;SDS011;1255;48.716;9.124;2023-04-16T07:58:19;11.43;;;7.95;;
2488;SDS011;1255;48.716;9.124;2023-04-16T08:00:46;14.65;;;8.82;;
2488;SDS011;1255;48.716;9.124;2023-04-16T08:03:13;15.00;;;7.40;;
2488;SDS011;1255;48.716;9.124;2023-04-16T08:05:40;13.35;;;8.60;;
2488;SDS011;1255;48.716;9.124;2023-04-16T08:08:06;12.50;;;8.05;;
2488;SDS011;1255;48.716;9.124;2023-04-16T08:10:33;12.50;;;8.52;;
2488;SDS011;1255;48.716;9.124;2023-04-16T08:13:01;13.15;;;8.55;;
2488;SDS011;1255;48.716;9.124;2023-04-16T08:15:28;13.32;;;7.97;;
2488;SDS011;1255;48.716;9.124;2023-04-16T08:17:55;9.73;;;6.88;;
2488;SDS011;1255;48.716;9.124;2023-04-16T08:20:22;14.20;;;7.68;;
2488;SDS011;1255;48.716;9.124;2023-04-16T08:22:48;15.70;;;9.13;;
2488;SDS011;1255;48.716;9.124;2023-04-16T08:25:15;10.55;;;7.65;;
2488;SDS011;1255;48.716;9.124;2023-04-16T08:27:42;13.20;;;8.82;;
2488;SDS011;1255;48.716;9.124;2023-04-16T08:30:10;13.70;;;8.05;;
2488;SDS011;1255;48.716;9.124;2023-04-16T08:32:37;11.02;;;7.50;;
2488;SDS011;1255;48.716;9.124;2023-04-16T08:35:04;13.80;;;7.80;;
2488;SDS011;1255;48.716;9.124;2023-04-16T08:37:31;12.25;;;8.00;;
2488;SDS011;1255;48.716;9.124;2023-04-16T08:39:58;11.73;;;7.28;;
2488;SDS011;1255;48.716;9.124;2023-04-16T08:42:28;11.00;;;7.63;;
2488;SDS011;1255;48.716;9.124;2023-04-16T08:44:58;13.55;;;8.23;;
2488;SDS011;1255;48.716;9.124;2023-04-16T08:47:34;12.13;;;7.50;;
2488;SDS011;1255;48.716;9.124;2023-04-16T08:50:02;13.40;;;8.55;;
2488;SDS011;1255;48.716;9.124;2023-04-16T08:52:30;12.20;;;7.30;;
2488;SDS011;1255;48.716;9.124;2023-04-16T08:55:00;11.40;;;7.25;;
2488;SDS011;1255;48.716;9.124;2023-04-16T08:57:33;12.25;;;8.18;;
2488;SDS011;1255;48.716;9.124;2023-04-16T09:00:05;11.15;;;7.85;;
2488;SDS011;1255;48.716;9.124;2023-04-16T09:02:35;12.02;;;7.82;;
2488;SDS011;1255;48.716;9.124;2023-04-16T09:05:04;11.15;;;7.25;;
2488;SDS011;1255;48.716;9.124;2023-04-16T09:07:32;12.10;;;7.90;;
2488;SDS011;1255;48.716;9.124;2023-04-16T09:09:59;10.50;;;7.43;;
2488;SDS011;1255;48.716;9.124;2023-04-16T09:12:26;12.65;;;7.15;;
2488;SDS011;1255;48.716;9.124;2023-04-16T09:14:55;11.98;;;7.13;;
2488;SDS011;1255;48.716;9.124;2023-04-16T09:17:23;14.43;;;7.57;;
2488;SDS011;1255;48.716;9.124;2023-04-16T09:19:51;9.82;;;5.80;;
2488;SDS011;1255;48.716;9.124;2023-04-16T09:22:18;9.40;;;6.80;;
2488;SDS011;1255;48.716;9.124;2023-04-16T09:24:45;10.95;;;6.95;;
2488;SDS011;1255;48.716;9.124;2023-04-16T09:27:12;6.95;;;5.90;;
2488;SDS011;1255;48.716;9.124;2023-04-16T09:29:39;10.18;;;6.57;;
2488;SDS011;1255;48.716;9.124;2023-04-16T09:32:07;10.15;;;6.63;;
2488;SDS011;1255;48.716;9.124;2023-04-16T09:37:21;10.02;;;6.40;;
2488;SDS011;1255;48.716;9.124;2023-04-16T09:39:51;10.85;;;5.95;;
2488;SDS011;1255;48.716;9.124;2023-04-16T09:42:20;12.93;;;6.97;;
2488;SDS011;1255;48.716;9.124;2023-04-16T09:44:48;10.18;;;6.97;;
2488;SDS011;1255;48.716;9.124;2023-04-16T09:47:15;9.75;;;6.65;;
2488;SDS011;1255;48.716;9.124;2023-04-16T09:49:43;10.57;;;7.07;;
2488;SDS011;1255;48.716;9.124;2023-04-16T09:52:13;9.00;;;6.55;;
2488;SDS011;1255;48.716;9.124;2023-04-16T09:54:44;11.23;;;7.28;;
2488;SDS011;1255;48.716;9.124;2023-04-16T09:57:12;10.30;;;6.43;;
2488;SDS011;1255;48.716;9.124;2023-04-16T09:59:39;14.13;;;6.22;;
2488;SDS011;1255;48.716;9.124;2023-04-16T10:02:06;10.82;;;7.53;;
2488;SDS011;1255;48.716;9.124;2023-04-16T10:04:43;10.70;;;6.30;;
2488;SDS011;1255;48.716;9.124;2023-04-16T10:07:12;10.95;;;7.07;;
2488;SDS011;1255;48.716;9.124;2023-04-16T10:09:39;8.48;;;6.65;;
2488;SDS011;1255;48.716;9.124;2023-04-16T10:12:07;11.13;;;7.13;;
2488;SDS011;1255;48.716;9.124;2023-04-16T10:14:34;17.67;;;7.78;;
2488;SDS011;1255;48.716;9.124;2023-04-16T10:17:01;11.15;;;7.70;;
2488;SDS011;1255;48.716;9.124;2023-04-16T10:19:30;10.40;;;7.15;;
2488;SDS011;1255;48.716;9.124;2023-04-16T10:21:58;13.00;;;7.65;;
2488;SDS011;1255;48.716;9.124;2023-04-16T10:24:26;11.07;;;7.50;;
2488;SDS011;1255;48.716;9.124;2023-04-16T10:26:54;11.20;;;6.97;;
2488;SDS011;1255;48.716;9.124;2023-04-16T10:29:21;10.90;;;8.10;;
2488;SDS011;1255;48.716;9.124;2023-04-16T10:31:49;10.77;;;7.03;;
2488;SDS011;1255;48.716;9.124;2023-04-16T10:34:17;12.90;;;8.27;;
2488;SDS011;1255;48.716;9.124;2023-04-16T10:36:47;12.95;;;7.72;;
2488;SDS011;1255;48.716;9.124;2023-04-16T10:39:17;11.93;;;6.78;;
2488;SDS011;1255;48.716;9.124;2023-04-16T10:41:46;13.10;;;8.27;;
2488;SDS011;1255;48.716;9.124;2023-04-16T10:44:16;10.00;;;6.20;;
2488;SDS011;1255;48.716;9.124;2023-04-16T10:46:45;11.80;;;7.80;;
2488;SDS011;1255;48.716;9.124;2023-04-16T10:49:15;9.20;;;6.70;;
2488;SDS011;1255;48.716;9.124;2023-04-16T10:51:51;11.55;;;7.32;;
2488;SDS011;1255;48.716;9.124;2023-04-16T10:54:20;11.55;;;7.00;;
2488;SDS011;1255;48.716;9.124;2023-04-16T10:56:52;10.18;;;7.22;;
2488;SDS011;1255;48.716;9.124;2023-04-16T10:59:21;10.15;;;6.18;;
2488;SDS011;1255;48.716;9.124;2023-04-16T11:01:50;12.00;;;7.03;;
2488;SDS011;1255;48.716;9.124;2023-04-16T11:04:33;12.32;;;7.63;;
2488;SDS011;1255;48.716;9.124;2023-04-16T11:07:01;9.35;;;6.72;;
2488;SDS011;1255;48.716;9.124;2023-04-16T11:12:22;8.48;;;5.88;;
2488;SDS011;1255;48.716;9.124;2023-04-16T11:14:51;10.45;;;6.15;;
2488;SDS011;1255;48.716;9.124;2023-04-16T11:17:19;6.85;;;5.22;;
2488;SDS011;1255;48.716;9.124;2023-04-16T11:19:46;8.77;;;5.90;;
2488;SDS011;1255;48.716;9.124;2023-04-16T11:22:15;9.43;;;7.03;;
2488;SDS011;1255;48.716;9.124;2023-04-16T11:24:43;9.95;;;5.53;;
2488;SDS011;1255;48.716;9.124;2023-04-16T11:27:13;7.35;;;5.97;;
2488;SDS011;1255;48.716;9.124;2023-04-16T11:29:42;8.55;;;4.65;;
2488;SDS011;1255;48.716;9.124;2023-04-16T11:32:09;10.05;;;5.80;;
2488;SDS011;1255;48.716;9.124;2023-04-16T11:34:45;9.07;;;5.90;;
2488;SDS011;1255;48.716;9.124;2023-04-16T11:37:12;9.18;;;5.93;;
2488;SDS011;1255;48.716;9.124;2023-04-16T11:39:46;7.72;;;6.05;;
2488;SDS011;1255;48.716;9.124;2023-04-16T11:42:17;6.78;;;4.30;;
2488;SDS011;1255;48.716;9.124;2023-04-16T11:44:48;7.50;;;4.30;;
2488;SDS011;1255;48.716;9.124;2023-04-16T11:47:18;5.18;;;3.55;;
2488;SDS011;1255;48.716;9.124;2023-04-16T11:49:45;5.47;;;4.40;;
2488;SDS011;1255;48.716;9.124;2023-04-16T11:52:12;5.38;;;3.72;;
2488;SDS011;1255;48.716;9.124;2023-04-16T11:54:40;5.30;;;3.65;;
2488;SDS011;1255;48.716;9.124;2023-04-16T11:57:07;4.60;;;3.30;;
2488;SDS011;1255;48.716;9.124;2023-04-16T11:59:33;5.00;;;3.83;;
2488;SDS011;1255;48.716;9.124;2023-04-16T12:02:03;5.07;;;3.13;;
2488;SDS011;1255;48.716;9.124;2023-04-16T12:04:31;5.75;;;3.75;;
2488;SDS011;1255;48.716;9.124;2023-04-16T12:07:05;3.50;;;3.20;;
2488;SDS011;1255;48.716;9.124;2023-04-16T12:09:33;4.43;;;2.90;;
2488;SDS011;1255;48.716;9.124;2023-04-16T12:12:00;4.18;;;3.30;;
2488;SDS011;1255;48.716;9.124;2023-04-16T12:14:27;4.13;;;2.80;;
2488;SDS011;1255;48.716;9.124;2023-04-16T12:16:54;4.68;;;3.58;;
2488;SDS011;1255;48.716;9.124;2023-04-16T12:19:23;5.10;;;3.30;;
2488;SDS011;1255;48.716;9.124;2023-04-16T12:21:50;3.90;;;3.15;;
2488;SDS011;1255;48.716;9.124;2023-04-16T12:24:18;3.65;;;2.67;;
2488;SDS011;1255;48.716;9.124;2023-04-16T12:26:47;3.20;;;2.90;;
2488;SDS011;1255;48.716;9.124;2023-04-16T12:29:20;4.57;;;2.50;;
2488;SDS011;1255;48.716;9.124;2023-04-16T12:31:48;2.42;;;1.85;;
2488;SDS011;1255;48.716;9.124;2023-04-16T12:34:16;4.95;;;2.95;;
2488;SDS011;1255;48.716;9.124;2023-04-16T12:36:45;2.58;;;2.33;;
2488;SDS011;1255;48.716;9.124;2023-04-16T12:39:13;2.55;;;2.30;;
2488;SDS011;1255;48.716;9.124;2023-04-16T12:41:41;3.40;;;2.30;;
2488;SDS011;1255;48.716;9.124;2023-04-16T12:44:09;3.03;;;2.33;;
2488;SDS011;1255;48.716;9.124;2023-04-16T12:46:37;5.00;;;2.33;;
2488;SDS011;1255;48.716;9.124;2023-04-16T12:49:04;2.80;;;2.17;;
2488;SDS011;1255;48.716;9.124;2023-04-16T12:51:31;3.83;;;2.72;;
2488;SDS011;1255;48.716;9.124;2023-04-16T12:54:00;2.95;;;2.65;;
2488;SDS011;1255;48.716;9.124;2023-04-16T12:56:27;2.17;;;1.98;;
2488;SDS011;1255;48.716;9.124;2023-04-16T12:58:54;3.20;;;2.88;;
2488;SDS011;1255;48.716;9.124;2023-04-16T13:01:21;3.03;;;2.58;;
2488;SDS011;1255;48.716;9.124;2023-04-16T13:03:48;5.50;;;2.55;;
2488;SDS011;1255;48.716;9.124;2023-04-16T13:06:15;3.63;;;2.80;;
2488;SDS011;1255;48.716;9.124;2023-04-16T13:08:42;3.42;;;2.20;;
2488;SDS011;1255;48.716;9.124;2023-04-16T13:11:11;2.70;;;2.35;;
2488;SDS011;1255;48.716;9.124;2023-04-16T13:13:38;3.10;;;2.35;;
2488;SDS011;1255;48.716;9.124;2023-04-16T13:16:05;3.00;;;2.70;;
2488;SDS011;1255;48.716;9.124;2023-04-16T13:18:32;3.30;;;2.35;;
2488;SDS011;1255;48.716;9.124;2023-04-16T13:21:00;2.97;;;2.63;;
2488;SDS011;1255;48.716;9.124;2023-04-16T13:23:27;5.25;;;3.00;;
2488;SDS011;1255;48.716;9.124;2023-04-16T13:25:54;4.68;;;3.15;;
2488;SDS011;1255;48.716;9.124;2023-04-16T13:28:22;3.40;;;2.28;;
2488;SDS011;1255;48.716;9.124;2023-04-16T13:30:48;5.22;;;2.65;;
2488;SDS011;1255;48.716;9.124;2023-04-16T13:33:15;4.03;;;2.60;;
2488;SDS011;1255;48.716;9.124;2023-04-16T13:35:42;3.75;;;2.97;;
2488;SDS011;1255;48.716;9.124;2023-04-16T13:38:09;3.47;;;2.72;;
2488;SDS011;1255;48.716;9.124;2023-04-16T13:40:36;4.32;;;3.00;;
2488;SDS011;1255;48.716;9.124;2023-04-16T13:43:03;3.50;;;2.92;;
2488;SDS011;1255;48.716;9.124;2023-04-16T13:45:31;3.08;;;2.78;;
2488;SDS011;1255;48.716;9.124;2023-04-16T13:47:58;5.53;;;2.60;;
2488;SDS011;1255;48.716;9.124;2023-04-16T13:50:24;4.57;;;3.20;;
2488;SDS011;1255;48.716;9.124;2023-04-16T13:52:51;3.78;;;2.90;;
2488;SDS011;1255;48.716;9.124;2023-04-16T13:55:18;4.03;;;2.80;;
2488;SDS011;1255;48.716;9.124;2023-04-16T13:57:44;3.95;;;3.40;;
2488;SDS011;1255;48.716;9.124;2023-04-16T14:00:12;3.67;;;2.90;;
2488;SDS011;1255;48.716;9.124;2023-04-16T14:02:41;3.60;;;2.72;;
2488;SDS011;1255;48.716;9.124;2023-04-16T14:05:09;3.55;;;2.88;;
2488;SDS011;1255;48.716;9.124;2023-04-16T14:07:36;4.85;;;3.05;;
2488;SDS011;1255;48.716;9.124;2023-04-16T14:10:03;3.72;;;3.25;;
2488;SDS011;1255;48.716;9.124;2023-04-16T14:12:30;3.20;;;2.80;;
2488;SDS011;1255;48.716;9.124;2023-04-16T14:14:57;6.10;;;3.92;;
2488;SDS011;1255;48.716;9.124;2023-04-16T14:17:24;5.07;;;3.22;;
2488;SDS011;1255;48.716;9.124;2023-04-16T14:19:52;4.50;;;3.75;;
2488;SDS011;1255;48.716;9.124;2023-04-16T14:22:18;3.05;;;2.67;;
2488;SDS011;1255;48.716;9.124;2023-04-16T14:24:45;3.28;;;2.90;;
2488;SDS011;1255;48.716;9.124;2023-04-16T14:27:12;3.05;;;2.55;;
2488;SDS011;1255;48.716;9.124;2023-04-16T14:29:38;4.20;;;3.65;;
2488;SDS011;1255;48.716;9.124;2023-04-16T14:32:06;3.75;;;3.25;;
2488;SDS011;1255;48.716;9.124;2023-04-16T14:34:33;4.93;;;4.13;;
2488;SDS011;1255;48.716;9.124;2023-04-16T14:37:01;4.30;;;3.40;;
2488;SDS011;1255;48.716;9.124;2023-04-16T14:39:28;4.40;;;3.58;;
2488;SDS011;1255;48.716;9.124;2023-04-16T14:41:55;4.43;;;3.65;;
2488;SDS011;1255;48.716;9.124;2023-04-16T14:44:22;4.18;;;3.40;;
2488;SDS011;1255;48.716;9.124;2023-04-16T14:46:48;6.63;;;4.10;;
2488;SDS011;1255;48.716;9.124;2023-04-16T14:49:15;4.90;;;4.20;;
2488;SDS011;1255;48.716;9.124;2023-04-16T14:51:42;4.43;;;4.03;;
2488;SDS011;1255;48.716;9.124;2023-04-16T14:54:11;6.28;;;4.20;;
2488;SDS011;1255;48.716;9.124;2023-04-16T14:56:38;4.75;;;4.18;;
2488;SDS011;1255;48.716;9.124;2023-04-16T14:59:05;7.85;;;5.30;;
2488;SDS011;1255;48.716;9.124;2023-04-16T15:01:32;5.60;;;4.28;;
2488;SDS011;1255;48.716;9.124;2023-04-16T15:04:00;9.13;;;5.00;;
2488;SDS011;1255;48.716;9.124;2023-04-16T15:06:27;5.80;;;4.35;;
2488;SDS011;1255;48.716;9.124;2023-04-16T15:08:53;7.85;;;5.78;;
2488;SDS011;1255;48.716;9.124;2023-04-16T15:11:21;6.68;;;4.43;;
2488;SDS011;1255;48.716;9.124;2023-04-16T15:13:48;9.15;;;6.47;;
2488;SDS011;1255;48.716;9.124;2023-04-16T15:16:15;6.55;;;5.28;;
2488;SDS011;1255;48.716;9.124;2023-04-16T15:18:42;6.43;;;5.30;;